Idaho Falls Regional Airport

Airport
ICAO code: 
KIDA
Summary
ICAO Region: 
NAM
Territory: 
Location: 
Idaho Falls, Idaho,
Coordinates: 
Aerial View: 
43° 30' 49.399" N, 112° 4' 14.7" W
Airport CFIT: 
Altimeter Temperature Error Correction
Airport RE: 
Hot and High Operations
Metar
Observation
KIDA 021453Z 03003KT 10SM CLR M03/M05 A3025 RMK AO2 SLP270 T10281050 58004
Station
Idaho Falls, Fanning Field
Date/Time
2021-12-02 14:53:00
Wind direction
30°
Wind speed
03 kts
Lowest cloud amount
n/a
Temperature
-2.8°C
Dew point
-5°C
Humidity
84%
Weather condition
n/a

Description

Idaho Falls Regional Airport is a public-use airport located 4 km northwest of the central business district of Idaho Falls, a city in Bonneville County, Idaho.

Climatology

Continental climate (Köppen climate classification DFb) with cold winters and warm, dry summers.

Runways

Designator Length Width Surface Rops
17/35 1235 23 ASP Yes/Yes
2/20 2744 46 ASP Yes/Yes
Airport map: 
Aerial View: 

SKYbrary Partners:

Safety knowledge contributed by: